sensor_id;sensor_type;location;lat;lon;timestamp;P1;durP1;ratioP1;P2;durP2;ratioP2
29812;SDS011;16707;48.106;11.548;2022-07-09T00:00:37;6.70;;;2.80;;
29812;SDS011;16707;48.106;11.548;2022-07-09T00:03:06;7.60;;;2.80;;
29812;SDS011;16707;48.106;11.548;2022-07-09T00:05:40;3.97;;;2.88;;
29812;SDS011;16707;48.106;11.548;2022-07-09T00:08:07;4.47;;;2.40;;
29812;SDS011;16707;48.106;11.548;2022-07-09T00:10:34;3.05;;;2.70;;
29812;SDS011;16707;48.106;11.548;2022-07-09T00:13:03;5.10;;;2.28;;
29812;SDS011;16707;48.106;11.548;2022-07-09T00:15:37;3.33;;;2.67;;
29812;SDS011;16707;48.106;11.548;2022-07-09T00:18:06;2.70;;;2.22;;
29812;SDS011;16707;48.106;11.548;2022-07-09T00:20:37;3.92;;;2.67;;
29812;SDS011;16707;48.106;11.548;2022-07-09T00:23:11;3.35;;;2.50;;
29812;SDS011;16707;48.106;11.548;2022-07-09T00:25:47;3.80;;;2.70;;
29812;SDS011;16707;48.106;11.548;2022-07-09T00:28:19;3.83;;;2.55;;
29812;SDS011;16707;48.106;11.548;2022-07-09T00:30:47;4.20;;;3.28;;
29812;SDS011;16707;48.106;11.548;2022-07-09T00:33:14;3.67;;;2.70;;
29812;SDS011;16707;48.106;11.548;2022-07-09T00:35:41;3.30;;;2.80;;
29812;SDS011;16707;48.106;11.548;2022-07-09T00:38:11;2.70;;;2.38;;
29812;SDS011;16707;48.106;11.548;2022-07-09T00:40:39;3.20;;;2.30;;
29812;SDS011;16707;48.106;11.548;2022-07-09T00:43:14;4.55;;;2.47;;
29812;SDS011;16707;48.106;11.548;2022-07-09T00:45:47;4.57;;;2.80;;
29812;SDS011;16707;48.106;11.548;2022-07-09T00:48:15;3.67;;;2.83;;
29812;SDS011;16707;48.106;11.548;2022-07-09T00:50:44;3.95;;;2.90;;
29812;SDS011;16707;48.106;11.548;2022-07-09T00:53:12;3.05;;;2.60;;
29812;SDS011;16707;48.106;11.548;2022-07-09T00:55:42;3.58;;;2.50;;
29812;SDS011;16707;48.106;11.548;2022-07-09T00:58:16;3.60;;;2.90;;
29812;SDS011;16707;48.106;11.548;2022-07-09T01:00:52;3.42;;;2.83;;
29812;SDS011;16707;48.106;11.548;2022-07-09T01:03:21;5.78;;;2.83;;
29812;SDS011;16707;48.106;11.548;2022-07-09T01:05:50;3.85;;;2.80;;
29812;SDS011;16707;48.106;11.548;2022-07-09T01:08:23;5.03;;;2.85;;
29812;SDS011;16707;48.106;11.548;2022-07-09T01:10:54;4.13;;;2.63;;
29812;SDS011;16707;48.106;11.548;2022-07-09T01:13:25;5.65;;;3.15;;
29812;SDS011;16707;48.106;11.548;2022-07-09T01:15:58;3.83;;;3.08;;
29812;SDS011;16707;48.106;11.548;2022-07-09T01:18:42;3.35;;;3.03;;
29812;SDS011;16707;48.106;11.548;2022-07-09T01:21:23;4.90;;;4.40;;
29812;SDS011;16707;48.106;11.548;2022-07-09T01:23:50;4.28;;;3.13;;
29812;SDS011;16707;48.106;11.548;2022-07-09T01:26:21;4.95;;;3.05;;
29812;SDS011;16707;48.106;11.548;2022-07-09T01:28:52;5.78;;;3.10;;
29812;SDS011;16707;48.106;11.548;2022-07-09T01:31:28;6.63;;;3.38;;
29812;SDS011;16707;48.106;11.548;2022-07-09T01:34:02;3.17;;;2.53;;
29812;SDS011;16707;48.106;11.548;2022-07-09T01:36:31;4.68;;;2.70;;
29812;SDS011;16707;48.106;11.548;2022-07-09T01:38:58;3.67;;;2.70;;
29812;SDS011;16707;48.106;11.548;2022-07-09T01:41:26;3.78;;;2.72;;
29812;SDS011;16707;48.106;11.548;2022-07-09T01:44:06;4.28;;;3.00;;
29812;SDS011;16707;48.106;11.548;2022-07-09T01:46:40;3.70;;;2.40;;
29812;SDS011;16707;48.106;11.548;2022-07-09T01:49:22;4.90;;;2.80;;
29812;SDS011;16707;48.106;11.548;2022-07-09T01:51:59;3.88;;;2.55;;
29812;SDS011;16707;48.106;11.548;2022-07-09T01:54:27;4.97;;;2.97;;
29812;SDS011;16707;48.106;11.548;2022-07-09T01:56:54;4.25;;;3.10;;
29812;SDS011;16707;48.106;11.548;2022-07-09T01:59:24;3.53;;;2.60;;
29812;SDS011;16707;48.106;11.548;2022-07-09T02:01:58;4.18;;;2.80;;
29812;SDS011;16707;48.106;11.548;2022-07-09T02:04:26;3.72;;;2.90;;
29812;SDS011;16707;48.106;11.548;2022-07-09T02:07:02;3.50;;;2.80;;
29812;SDS011;16707;48.106;11.548;2022-07-09T02:09:29;2.63;;;2.42;;
29812;SDS011;16707;48.106;11.548;2022-07-09T02:12:01;3.92;;;2.65;;
29812;SDS011;16707;48.106;11.548;2022-07-09T02:14:32;4.68;;;2.97;;
29812;SDS011;16707;48.106;11.548;2022-07-09T02:17:10;3.97;;;3.00;;
29812;SDS011;16707;48.106;11.548;2022-07-09T02:19:49;3.22;;;2.90;;
29812;SDS011;16707;48.106;11.548;2022-07-09T02:22:25;5.65;;;2.85;;
29812;SDS011;16707;48.106;11.548;2022-07-09T02:24:55;4.95;;;2.72;;
29812;SDS011;16707;48.106;11.548;2022-07-09T02:27:29;6.68;;;2.63;;
29812;SDS011;16707;48.106;11.548;2022-07-09T02:30:00;3.80;;;2.72;;
29812;SDS011;16707;48.106;11.548;2022-07-09T02:32:27;5.70;;;3.17;;
29812;SDS011;16707;48.106;11.548;2022-07-09T02:35:02;4.20;;;2.70;;
29812;SDS011;16707;48.106;11.548;2022-07-09T02:37:42;4.10;;;2.53;;
29812;SDS011;16707;48.106;11.548;2022-07-09T02:40:12;3.70;;;2.63;;
29812;SDS011;16707;48.106;11.548;2022-07-09T02:42:45;3.70;;;2.70;;
29812;SDS011;16707;48.106;11.548;2022-07-09T02:45:17;3.25;;;2.70;;
29812;SDS011;16707;48.106;11.548;2022-07-09T02:47:51;3.50;;;2.63;;
29812;SDS011;16707;48.106;11.548;2022-07-09T02:50:29;6.30;;;3.10;;
29812;SDS011;16707;48.106;11.548;2022-07-09T02:53:04;3.65;;;2.65;;
29812;SDS011;16707;48.106;11.548;2022-07-09T02:55:35;5.22;;;2.63;;
29812;SDS011;16707;48.106;11.548;2022-07-09T02:58:15;3.03;;;2.72;;
29812;SDS011;16707;48.106;11.548;2022-07-09T03:00:49;3.72;;;2.60;;
29812;SDS011;16707;48.106;11.548;2022-07-09T03:05:43;6.10;;;2.58;;
29812;SDS011;16707;48.106;11.548;2022-07-09T03:08:12;5.80;;;2.55;;
29812;SDS011;16707;48.106;11.548;2022-07-09T03:10:39;2.95;;;2.65;;
29812;SDS011;16707;48.106;11.548;2022-07-09T03:13:15;3.70;;;2.27;;
29812;SDS011;16707;48.106;11.548;2022-07-09T03:15:43;2.75;;;2.15;;
29812;SDS011;16707;48.106;11.548;2022-07-09T03:18:27;3.35;;;2.30;;
29812;SDS011;16707;48.106;11.548;2022-07-09T03:21:08;4.00;;;2.53;;
29812;SDS011;16707;48.106;11.548;2022-07-09T03:23:40;4.85;;;2.72;;
29812;SDS011;16707;48.106;11.548;2022-07-09T03:26:08;2.95;;;2.47;;
29812;SDS011;16707;48.106;11.548;2022-07-09T03:28:38;3.78;;;2.50;;
29812;SDS011;16707;48.106;11.548;2022-07-09T03:31:15;3.95;;;2.95;;
29812;SDS011;16707;48.106;11.548;2022-07-09T03:33:46;3.75;;;2.33;;
29812;SDS011;16707;48.106;11.548;2022-07-09T03:36:31;2.53;;;2.33;;
29812;SDS011;16707;48.106;11.548;2022-07-09T03:39:03;4.93;;;2.75;;
29812;SDS011;16707;48.106;11.548;2022-07-09T03:41:34;4.18;;;2.75;;
29812;SDS011;16707;48.106;11.548;2022-07-09T03:44:08;3.47;;;2.40;;
29812;SDS011;16707;48.106;11.548;2022-07-09T03:46:35;3.00;;;2.70;;
29812;SDS011;16707;48.106;11.548;2022-07-09T03:49:06;3.60;;;2.50;;
29812;SDS011;16707;48.106;11.548;2022-07-09T03:51:33;3.00;;;2.55;;
29812;SDS011;16707;48.106;11.548;2022-07-09T03:54:03;4.95;;;2.70;;
29812;SDS011;16707;48.106;11.548;2022-07-09T03:56:31;3.28;;;2.67;;
29812;SDS011;16707;48.106;11.548;2022-07-09T03:59:18;3.30;;;2.72;;
29812;SDS011;16707;48.106;11.548;2022-07-09T04:01:48;4.03;;;2.70;;
29812;SDS011;16707;48.106;11.548;2022-07-09T04:04:16;5.50;;;2.85;;
29812;SDS011;16707;48.106;11.548;2022-07-09T04:06:45;5.20;;;2.85;;
29812;SDS011;16707;48.106;11.548;2022-07-09T04:09:15;4.88;;;2.63;;
29812;SDS011;16707;48.106;11.548;2022-07-09T04:11:49;4.72;;;2.72;;
29812;SDS011;16707;48.106;11.548;2022-07-09T04:14:23;3.88;;;2.80;;
29812;SDS011;16707;48.106;11.548;2022-07-09T04:16:56;3.10;;;2.80;;
29812;SDS011;16707;48.106;11.548;2022-07-09T04:19:25;3.20;;;2.50;;
29812;SDS011;16707;48.106;11.548;2022-07-09T04:21:55;3.90;;;2.83;;
29812;SDS011;16707;48.106;11.548;2022-07-09T04:24:28;3.72;;;2.47;;
29812;SDS011;16707;48.106;11.548;2022-07-09T04:26:58;2.85;;;2.30;;
29812;SDS011;16707;48.106;11.548;2022-07-09T04:29:27;2.92;;;2.65;;
29812;SDS011;16707;48.106;11.548;2022-07-09T04:32:10;2.60;;;2.40;;
29812;SDS011;16707;48.106;11.548;2022-07-09T04:34:38;3.05;;;2.38;;
29812;SDS011;16707;48.106;11.548;2022-07-09T04:37:09;3.28;;;2.60;;
29812;SDS011;16707;48.106;11.548;2022-07-09T04:39:41;2.55;;;2.10;;
29812;SDS011;16707;48.106;11.548;2022-07-09T04:42:15;4.20;;;2.45;;
29812;SDS011;16707;48.106;11.548;2022-07-09T04:44:53;3.08;;;2.40;;
29812;SDS011;16707;48.106;11.548;2022-07-09T04:47:24;3.58;;;2.45;;
29812;SDS011;16707;48.106;11.548;2022-07-09T04:49:51;3.00;;;2.70;;
29812;SDS011;16707;48.106;11.548;2022-07-09T04:52:25;4.97;;;2.30;;
29812;SDS011;16707;48.106;11.548;2022-07-09T04:54:54;3.05;;;2.13;;
29812;SDS011;16707;48.106;11.548;2022-07-09T04:57:21;2.50;;;2.20;;
29812;SDS011;16707;48.106;11.548;2022-07-09T04:59:49;3.42;;;2.60;;
29812;SDS011;16707;48.106;11.548;2022-07-09T05:02:23;3.58;;;2.50;;
29812;SDS011;16707;48.106;11.548;2022-07-09T05:04:52;2.95;;;2.25;;
29812;SDS011;16707;48.106;11.548;2022-07-09T05:07:20;3.67;;;2.55;;
29812;SDS011;16707;48.106;11.548;2022-07-09T05:09:47;7.22;;;2.45;;
29812;SDS011;16707;48.106;11.548;2022-07-09T05:12:19;5.50;;;2.40;;
29812;SDS011;16707;48.106;11.548;2022-07-09T05:14:46;4.75;;;2.50;;
29812;SDS011;16707;48.106;11.548;2022-07-09T05:17:21;3.22;;;2.03;;
29812;SDS011;16707;48.106;11.548;2022-07-09T05:19:53;4.05;;;2.47;;
29812;SDS011;16707;48.106;11.548;2022-07-09T05:22:24;3.08;;;2.40;;
29812;SDS011;16707;48.106;11.548;2022-07-09T05:25:02;2.50;;;2.20;;
29812;SDS011;16707;48.106;11.548;2022-07-09T05:27:39;2.50;;;2.22;;
29812;SDS011;16707;48.106;11.548;2022-07-09T05:30:11;2.80;;;2.10;;
29812;SDS011;16707;48.106;11.548;2022-07-09T05:32:42;3.97;;;2.40;;
29812;SDS011;16707;48.106;11.548;2022-07-09T05:35:16;3.30;;;2.17;;
29812;SDS011;16707;48.106;11.548;2022-07-09T05:37:43;4.57;;;2.47;;
29812;SDS011;16707;48.106;11.548;2022-07-09T05:40:12;4.47;;;2.17;;
29812;SDS011;16707;48.106;11.548;2022-07-09T05:42:44;2.97;;;2.30;;
29812;SDS011;16707;48.106;11.548;2022-07-09T05:45:16;3.53;;;2.13;;
29812;SDS011;16707;48.106;11.548;2022-07-09T05:47:52;2.80;;;2.20;;
29812;SDS011;16707;48.106;11.548;2022-07-09T05:50:25;3.35;;;2.30;;
29812;SDS011;16707;48.106;11.548;2022-07-09T05:52:56;3.72;;;2.15;;
29812;SDS011;16707;48.106;11.548;2022-07-09T05:55:27;5.10;;;2.53;;
29812;SDS011;16707;48.106;11.548;2022-07-09T05:57:55;2.60;;;2.03;;
29812;SDS011;16707;48.106;11.548;2022-07-09T06:00:26;3.00;;;2.05;;
29812;SDS011;16707;48.106;11.548;2022-07-09T06:02:56;2.38;;;2.10;;
29812;SDS011;16707;48.106;11.548;2022-07-09T06:05:31;3.03;;;2.08;;
29812;SDS011;16707;48.106;11.548;2022-07-09T06:07:59;2.95;;;1.88;;
29812;SDS011;16707;48.106;11.548;2022-07-09T06:10:26;2.97;;;2.08;;
29812;SDS011;16707;48.106;11.548;2022-07-09T06:12:53;4.95;;;2.60;;
29812;SDS011;16707;48.106;11.548;2022-07-09T06:15:23;2.20;;;2.00;;
29812;SDS011;16707;48.106;11.548;2022-07-09T06:17:54;2.22;;;1.95;;
29812;SDS011;16707;48.106;11.548;2022-07-09T06:20:22;2.47;;;1.75;;
29812;SDS011;16707;48.106;11.548;2022-07-09T06:22:50;4.90;;;2.20;;
29812;SDS011;16707;48.106;11.548;2022-07-09T06:25:28;4.80;;;2.25;;
29812;SDS011;16707;48.106;11.548;2022-07-09T06:27:58;3.38;;;2.08;;
29812;SDS011;16707;48.106;11.548;2022-07-09T06:30:25;3.78;;;2.45;;
29812;SDS011;16707;48.106;11.548;2022-07-09T06:32:53;3.67;;;2.28;;
29812;SDS011;16707;48.106;11.548;2022-07-09T06:35:23;2.90;;;2.08;;
29812;SDS011;16707;48.106;11.548;2022-07-09T06:37:51;2.83;;;1.95;;
29812;SDS011;16707;48.106;11.548;2022-07-09T06:40:21;2.33;;;1.65;;
29812;SDS011;16707;48.106;11.548;2022-07-09T06:42:51;3.38;;;2.60;;
29812;SDS011;16707;48.106;11.548;2022-07-09T06:45:22;2.38;;;2.17;;
29812;SDS011;16707;48.106;11.548;2022-07-09T06:47:55;2.67;;;1.52;;
29812;SDS011;16707;48.106;11.548;2022-07-09T06:50:26;2.30;;;2.10;;
29812;SDS011;16707;48.106;11.548;2022-07-09T06:52:56;3.50;;;1.92;;
29812;SDS011;16707;48.106;11.548;2022-07-09T06:55:28;3.10;;;2.03;;
29812;SDS011;16707;48.106;11.548;2022-07-09T06:57:58;4.20;;;2.17;;
29812;SDS011;16707;48.106;11.548;2022-07-09T07:00:29;3.00;;;1.80;;
29812;SDS011;16707;48.106;11.548;2022-07-09T07:02:57;2.17;;;1.98;;
29812;SDS011;16707;48.106;11.548;2022-07-09T07:05:25;4.25;;;2.13;;
29812;SDS011;16707;48.106;11.548;2022-07-09T07:07:53;2.63;;;1.70;;
29812;SDS011;16707;48.106;11.548;2022-07-09T07:10:20;2.08;;;1.80;;
29812;SDS011;16707;48.106;11.548;2022-07-09T07:12:50;2.42;;;1.88;;
29812;SDS011;16707;48.106;11.548;2022-07-09T07:15:20;3.17;;;1.77;;
29812;SDS011;16707;48.106;11.548;2022-07-09T07:17:51;4.57;;;1.75;;
29812;SDS011;16707;48.106;11.548;2022-07-09T07:20:22;2.63;;;1.90;;
29812;SDS011;16707;48.106;11.548;2022-07-09T07:22:54;2.50;;;1.80;;
29812;SDS011;16707;48.106;11.548;2022-07-09T07:25:25;3.85;;;2.13;;
29812;SDS011;16707;48.106;11.548;2022-07-09T07:27:55;1.80;;;1.70;;
29812;SDS011;16707;48.106;11.548;2022-07-09T07:30:23;3.30;;;1.80;;
29812;SDS011;16707;48.106;11.548;2022-07-09T07:32:51;3.83;;;2.10;;
29812;SDS011;16707;48.106;11.548;2022-07-09T07:35:23;2.10;;;1.90;;
29812;SDS011;16707;48.106;11.548;2022-07-09T07:38:00;3.90;;;2.03;;
29812;SDS011;16707;48.106;11.548;2022-07-09T07:40:38;3.28;;;2.03;;
29812;SDS011;16707;48.106;11.548;2022-07-09T07:43:24;3.83;;;2.10;;
29812;SDS011;16707;48.106;11.548;2022-07-09T07:45:51;3.53;;;2.17;;
29812;SDS011;16707;48.106;11.548;2022-07-09T07:48:23;5.32;;;2.53;;
29812;SDS011;16707;48.106;11.548;2022-07-09T07:50:58;3.85;;;1.65;;
29812;SDS011;16707;48.106;11.548;2022-07-09T07:53:26;2.28;;;1.70;;
29812;SDS011;16707;48.106;11.548;2022-07-09T07:56:02;2.10;;;1.80;;
29812;SDS011;16707;48.106;11.548;2022-07-09T07:58:34;3.20;;;1.85;;
29812;SDS011;16707;48.106;11.548;2022-07-09T08:01:10;2.42;;;2.00;;
29812;SDS011;16707;48.106;11.548;2022-07-09T08:03:39;2.40;;;1.80;;
29812;SDS011;16707;48.106;11.548;2022-07-09T08:06:11;2.53;;;1.80;;
29812;SDS011;16707;48.106;11.548;2022-07-09T08:08:38;3.45;;;1.65;;
29812;SDS011;16707;48.106;11.548;2022-07-09T08:11:12;3.72;;;1.80;;
29812;SDS011;16707;48.106;11.548;2022-07-09T08:13:56;5.28;;;2.08;;
29812;SDS011;16707;48.106;11.548;2022-07-09T08:16:25;3.33;;;1.73;;
29812;SDS011;16707;48.106;11.548;2022-07-09T08:18:53;5.05;;;1.63;;
29812;SDS011;16707;48.106;11.548;2022-07-09T08:21:21;4.43;;;1.70;;
29812;SDS011;16707;48.106;11.548;2022-07-09T08:23:48;3.20;;;1.65;;
29812;SDS011;16707;48.106;11.548;2022-07-09T08:26:19;2.42;;;1.60;;
29812;SDS011;16707;48.106;11.548;2022-07-09T08:28:49;4.22;;;1.95;;
29812;SDS011;16707;48.106;11.548;2022-07-09T08:31:44;3.90;;;1.60;;
29812;SDS011;16707;48.106;11.548;2022-07-09T08:34:14;2.78;;;1.50;;
29812;SDS011;16707;48.106;11.548;2022-07-09T08:36:41;6.05;;;1.90;;
29812;SDS011;16707;48.106;11.548;2022-07-09T08:39:16;5.50;;;1.85;;
29812;SDS011;16707;48.106;11.548;2022-07-09T08:41:45;1.70;;;1.30;;
29812;SDS011;16707;48.106;11.548;2022-07-09T08:44:13;5.18;;;1.75;;
29812;SDS011;16707;48.106;11.548;2022-07-09T08:46:41;3.40;;;1.48;;
29812;SDS011;16707;48.106;11.548;2022-07-09T08:49:08;3.58;;;1.70;;
29812;SDS011;16707;48.106;11.548;2022-07-09T08:51:41;3.28;;;1.58;;
29812;SDS011;16707;48.106;11.548;2022-07-09T08:54:10;4.00;;;1.45;;
29812;SDS011;16707;48.106;11.548;2022-07-09T08:56:40;3.70;;;2.10;;
29812;SDS011;16707;48.106;11.548;2022-07-09T08:59:07;3.20;;;1.90;;
29812;SDS011;16707;48.106;11.548;2022-07-09T09:01:41;2.00;;;1.80;;
29812;SDS011;16707;48.106;11.548;2022-07-09T09:04:11;2.80;;;1.98;;
29812;SDS011;16707;48.106;11.548;2022-07-09T09:06:45;2.70;;;1.80;;
29812;SDS011;16707;48.106;11.548;2022-07-09T09:09:17;3.80;;;2.03;;
29812;SDS011;16707;48.106;11.548;2022-07-09T09:11:47;4.72;;;2.13;;
29812;SDS011;16707;48.106;11.548;2022-07-09T09:14:19;2.30;;;1.80;;
29812;SDS011;16707;48.106;11.548;2022-07-09T09:16:48;4.25;;;1.58;;
29812;SDS011;16707;48.106;11.548;2022-07-09T09:19:16;3.15;;;1.83;;
29812;SDS011;16707;48.106;11.548;2022-07-09T09:21:52;2.00;;;1.70;;
29812;SDS011;16707;48.106;11.548;2022-07-09T09:24:22;2.80;;;1.85;;
29812;SDS011;16707;48.106;11.548;2022-07-09T09:26:56;3.95;;;1.92;;
29812;SDS011;16707;48.106;11.548;2022-07-09T09:29:27;1.90;;;1.67;;
29812;SDS011;16707;48.106;11.548;2022-07-09T09:31:54;3.00;;;1.85;;
29812;SDS011;16707;48.106;11.548;2022-07-09T09:34:25;2.35;;;1.83;;
29812;SDS011;16707;48.106;11.548;2022-07-09T09:36:55;1.90;;;1.50;;
29812;SDS011;16707;48.106;11.548;2022-07-09T09:39:23;3.58;;;1.67;;
29812;SDS011;16707;48.106;11.548;2022-07-09T09:41:55;3.25;;;1.98;;
29812;SDS011;16707;48.106;11.548;2022-07-09T09:44:26;1.95;;;1.48;;
29812;SDS011;16707;48.106;11.548;2022-07-09T09:46:55;1.73;;;1.52;;
29812;SDS011;16707;48.106;11.548;2022-07-09T09:52:02;4.05;;;1.58;;
29812;SDS011;16707;48.106;11.548;2022-07-09T09:54:36;2.75;;;1.48;;
29812;SDS011;16707;48.106;11.548;2022-07-09T09:57:13;2.85;;;1.40;;
29812;SDS011;16707;48.106;11.548;2022-07-09T09:59:49;2.78;;;1.70;;
29812;SDS011;16707;48.106;11.548;2022-07-09T10:02:19;2.63;;;1.88;;
29812;SDS011;16707;48.106;11.548;2022-07-09T10:04:49;2.40;;;1.48;;
29812;SDS011;16707;48.106;11.548;2022-07-09T10:07:32;1.90;;;1.40;;
29812;SDS011;16707;48.106;11.548;2022-07-09T10:10:00;2.70;;;1.60;;
29812;SDS011;16707;48.106;11.548;2022-07-09T10:12:37;2.35;;;1.50;;
29812;SDS011;16707;48.106;11.548;2022-07-09T10:15:15;3.33;;;1.50;;
29812;SDS011;16707;48.106;11.548;2022-07-09T10:17:52;3.33;;;1.60;;
29812;SDS011;16707;48.106;11.548;2022-07-09T10:20:29;2.83;;;1.63;;
29812;SDS011;16707;48.106;11.548;2022-07-09T10:26:15;3.08;;;1.60;;
29812;SDS011;16707;48.106;11.548;2022-07-09T10:28:46;4.07;;;1.80;;
29812;SDS011;16707;48.106;11.548;2022-07-09T10:31:21;2.08;;;1.55;;
29812;SDS011;16707;48.106;11.548;2022-07-09T10:34:00;3.00;;;1.70;;
29812;SDS011;16707;48.106;11.548;2022-07-09T10:37:09;2.78;;;1.50;;
29812;SDS011;16707;48.106;11.548;2022-07-09T10:39:51;3.45;;;1.20;;
29812;SDS011;16707;48.106;11.548;2022-07-09T10:42:39;1.40;;;1.23;;
29812;SDS011;16707;48.106;11.548;2022-07-09T10:45:23;2.10;;;1.50;;
29812;SDS011;16707;48.106;11.548;2022-07-09T10:47:55;3.45;;;1.67;;
29812;SDS011;16707;48.106;11.548;2022-07-09T10:50:36;3.90;;;1.73;;
29812;SDS011;16707;48.106;11.548;2022-07-09T10:53:11;2.85;;;1.67;;
29812;SDS011;16707;48.106;11.548;2022-07-09T10:55:44;2.08;;;1.83;;
29812;SDS011;16707;48.106;11.548;2022-07-09T10:58:17;1.63;;;1.35;;
29812;SDS011;16707;48.106;11.548;2022-07-09T11:00:53;3.63;;;1.53;;
29812;SDS011;16707;48.106;11.548;2022-07-09T11:03:30;3.55;;;1.70;;
29812;SDS011;16707;48.106;11.548;2022-07-09T11:05:58;2.38;;;1.48;;
29812;SDS011;16707;48.106;11.548;2022-07-09T11:08:26;1.40;;;1.30;;
29812;SDS011;16707;48.106;11.548;2022-07-09T11:10:55;1.58;;;1.13;;
29812;SDS011;16707;48.106;11.548;2022-07-09T11:13:25;1.45;;;1.05;;
29812;SDS011;16707;48.106;11.548;2022-07-09T11:15:57;3.33;;;1.40;;
29812;SDS011;16707;48.106;11.548;2022-07-09T11:18:26;1.63;;;1.50;;
29812;SDS011;16707;48.106;11.548;2022-07-09T11:20:57;2.85;;;1.30;;
29812;SDS011;16707;48.106;11.548;2022-07-09T11:23:30;2.17;;;1.25;;
29812;SDS011;16707;48.106;11.548;2022-07-09T11:26:01;3.47;;;1.60;;
29812;SDS011;16707;48.106;11.548;2022-07-09T11:28:28;2.55;;;1.30;;
29812;SDS011;16707;48.106;11.548;2022-07-09T11:30:59;2.28;;;1.30;;
29812;SDS011;16707;48.106;11.548;2022-07-09T11:33:33;1.42;;;1.20;;
29812;SDS011;16707;48.106;11.548;2022-07-09T11:36:25;3.90;;;1.73;;
29812;SDS011;16707;48.106;11.548;2022-07-09T11:39:06;2.28;;;1.60;;
29812;SDS011;16707;48.106;11.548;2022-07-09T11:41:55;2.92;;;1.33;;
29812;SDS011;16707;48.106;11.548;2022-07-09T11:44:27;2.10;;;1.42;;
29812;SDS011;16707;48.106;11.548;2022-07-09T11:47:04;2.17;;;1.70;;
29812;SDS011;16707;48.106;11.548;2022-07-09T11:49:34;2.20;;;1.50;;
29812;SDS011;16707;48.106;11.548;2022-07-09T11:52:03;2.03;;;1.20;;
29812;SDS011;16707;48.106;11.548;2022-07-09T11:54:55;2.55;;;1.42;;
29812;SDS011;16707;48.106;11.548;2022-07-09T11:57:27;2.55;;;1.58;;
29812;SDS011;16707;48.106;11.548;2022-07-09T11:59:58;2.65;;;1.33;;
29812;SDS011;16707;48.106;11.548;2022-07-09T12:02:34;2.95;;;1.50;;
29812;SDS011;16707;48.106;11.548;2022-07-09T12:05:05;1.85;;;1.40;;
29812;SDS011;16707;48.106;11.548;2022-07-09T12:07:35;2.53;;;1.60;;
29812;SDS011;16707;48.106;11.548;2022-07-09T12:10:04;1.98;;;1.30;;
29812;SDS011;16707;48.106;11.548;2022-07-09T12:12:47;3.95;;;1.65;;
29812;SDS011;16707;48.106;11.548;2022-07-09T12:15:14;2.65;;;1.40;;
29812;SDS011;16707;48.106;11.548;2022-07-09T12:17:44;2.28;;;1.35;;
29812;SDS011;16707;48.106;11.548;2022-07-09T12:20:19;1.80;;;1.25;;
29812;SDS011;16707;48.106;11.548;2022-07-09T12:22:48;4.28;;;1.67;;
29812;SDS011;16707;48.106;11.548;2022-07-09T12:25:15;2.97;;;1.40;;
29812;SDS011;16707;48.106;11.548;2022-07-09T12:27:56;2.08;;;1.48;;
29812;SDS011;16707;48.106;11.548;2022-07-09T12:30:33;3.58;;;1.50;;
29812;SDS011;16707;48.106;11.548;2022-07-09T12:33:03;1.90;;;1.10;;
29812;SDS011;16707;48.106;11.548;2022-07-09T12:35:42;1.58;;;1.10;;
29812;SDS011;16707;48.106;11.548;2022-07-09T12:38:14;1.80;;;1.33;;
29812;SDS011;16707;48.106;11.548;2022-07-09T12:40:47;1.88;;;1.23;;
29812;SDS011;16707;48.106;11.548;2022-07-09T12:43:16;2.10;;;1.25;;
29812;SDS011;16707;48.106;11.548;2022-07-09T12:45:46;2.55;;;1.50;;
29812;SDS011;16707;48.106;11.548;2022-07-09T12:48:19;1.45;;;1.15;;
29812;SDS011;16707;48.106;11.548;2022-07-09T12:50:55;2.50;;;1.20;;
29812;SDS011;16707;48.106;11.548;2022-07-09T12:53:38;2.47;;;1.27;;
29812;SDS011;16707;48.106;11.548;2022-07-09T12:56:11;1.50;;;1.20;;
29812;SDS011;16707;48.106;11.548;2022-07-09T12:58:42;1.88;;;1.17;;
29812;SDS011;16707;48.106;11.548;2022-07-09T13:01:22;2.47;;;1.20;;
29812;SDS011;16707;48.106;11.548;2022-07-09T13:03:58;2.38;;;1.30;;
29812;SDS011;16707;48.106;11.548;2022-07-09T13:06:26;3.40;;;1.45;;
29812;SDS011;16707;48.106;11.548;2022-07-09T13:08:59;1.70;;;1.00;;
29812;SDS011;16707;48.106;11.548;2022-07-09T13:11:29;1.15;;;1.00;;
29812;SDS011;16707;48.106;11.548;2022-07-09T13:13:58;2.97;;;1.40;;
29812;SDS011;16707;48.106;11.548;2022-07-09T13:16:29;1.92;;;1.20;;
29812;SDS011;16707;48.106;11.548;2022-07-09T13:19:01;2.97;;;1.30;;
29812;SDS011;16707;48.106;11.548;2022-07-09T13:21:28;1.73;;;1.30;;
29812;SDS011;16707;48.106;11.548;2022-07-09T13:23:55;1.30;;;1.20;;
29812;SDS011;16707;48.106;11.548;2022-07-09T13:26:24;2.00;;;1.30;;
29812;SDS011;16707;48.106;11.548;2022-07-09T13:28:53;1.73;;;1.17;;
29812;SDS011;16707;48.106;11.548;2022-07-09T13:31:28;2.25;;;1.60;;
29812;SDS011;16707;48.106;11.548;2022-07-09T13:33:58;1.63;;;1.15;;
29812;SDS011;16707;48.106;11.548;2022-07-09T13:36:25;3.00;;;1.40;;
29812;SDS011;16707;48.106;11.548;2022-07-09T13:38:58;1.70;;;1.30;;
29812;SDS011;16707;48.106;11.548;2022-07-09T13:41:28;1.95;;;1.20;;
29812;SDS011;16707;48.106;11.548;2022-07-09T13:43:55;1.92;;;1.45;;
29812;SDS011;16707;48.106;11.548;2022-07-09T13:46:23;1.88;;;1.50;;
29812;SDS011;16707;48.106;11.548;2022-07-09T13:48:52;1.35;;;1.13;;
29812;SDS011;16707;48.106;11.548;2022-07-09T13:51:25;2.58;;;1.30;;
29812;SDS011;16707;48.106;11.548;2022-07-09T13:53:53;2.45;;;1.33;;
29812;SDS011;16707;48.106;11.548;2022-07-09T13:56:20;2.63;;;1.30;;
29812;SDS011;16707;48.106;11.548;2022-07-09T13:58:54;1.65;;;1.13;;
29812;SDS011;16707;48.106;11.548;2022-07-09T14:01:22;1.75;;;1.30;;
29812;SDS011;16707;48.106;11.548;2022-07-09T14:03:58;2.38;;;1.38;;
29812;SDS011;16707;48.106;11.548;2022-07-09T14:06:25;2.90;;;1.67;;
29812;SDS011;16707;48.106;11.548;2022-07-09T14:08:56;2.00;;;1.40;;
29812;SDS011;16707;48.106;11.548;2022-07-09T14:11:27;2.25;;;1.50;;
29812;SDS011;16707;48.106;11.548;2022-07-09T14:13:57;2.40;;;1.50;;
29812;SDS011;16707;48.106;11.548;2022-07-09T14:16:27;2.13;;;1.35;;
29812;SDS011;16707;48.106;11.548;2022-07-09T14:18:58;2.78;;;1.30;;
29812;SDS011;16707;48.106;11.548;2022-07-09T14:21:28;2.25;;;1.48;;
29812;SDS011;16707;48.106;11.548;2022-07-09T14:23:58;2.38;;;1.40;;
29812;SDS011;16707;48.106;11.548;2022-07-09T14:26:27;2.03;;;1.30;;
29812;SDS011;16707;48.106;11.548;2022-07-09T14:28:54;2.03;;;1.58;;
29812;SDS011;16707;48.106;11.548;2022-07-09T14:31:27;3.35;;;1.50;;
29812;SDS011;16707;48.106;11.548;2022-07-09T14:33:58;1.80;;;1.30;;
29812;SDS011;16707;48.106;11.548;2022-07-09T14:36:26;2.13;;;1.50;;
29812;SDS011;16707;48.106;11.548;2022-07-09T14:38:59;2.53;;;1.77;;
29812;SDS011;16707;48.106;11.548;2022-07-09T14:41:30;2.30;;;1.60;;
29812;SDS011;16707;48.106;11.548;2022-07-09T14:44:00;2.13;;;1.13;;
29812;SDS011;16707;48.106;11.548;2022-07-09T14:46:33;2.60;;;1.43;;
29812;SDS011;16707;48.106;11.548;2022-07-09T14:49:02;2.53;;;1.60;;
29812;SDS011;16707;48.106;11.548;2022-07-09T14:51:36;3.90;;;1.42;;
29812;SDS011;16707;48.106;11.548;2022-07-09T14:54:17;1.58;;;1.23;;
29812;SDS011;16707;48.106;11.548;2022-07-09T14:56:45;1.92;;;1.20;;
29812;SDS011;16707;48.106;11.548;2022-07-09T14:59:15;1.45;;;1.15;;
29812;SDS011;16707;48.106;11.548;2022-07-09T15:01:47;1.17;;;1.08;;
29812;SDS011;16707;48.106;11.548;2022-07-09T15:04:16;2.05;;;1.40;;
29812;SDS011;16707;48.106;11.548;2022-07-09T15:06:43;1.63;;;1.20;;
29812;SDS011;16707;48.106;11.548;2022-07-09T15:09:19;1.48;;;1.17;;